Time;durP1;ratioP1;P1;durP2;ratioP2;P2;SDS_P1;SDS_P2;PMS_P1;PMS_P2;Temp;Humidity;BMP_temperature;BMP_pressure;BME280_temperature;BME280_humidity;BME280_pressure;Samples;Min_cycle;Max_cycle;Signal;HPM_P1;HPM_P2
2021/03/30 00:02:05;;;;;;;8.07;4.88;;;6.50;99.90;;;;;;5034106;28;20021;-73
2021/03/30 00:04:31;;;;;;;11.50;5.25;;;6.50;99.90;;;;;;5033233;28;20388;-73
2021/03/30 00:06:56;;;;;;;12.73;5.13;;;6.50;99.90;;;;;;5034763;28;20526;-72
2021/03/30 00:09:22;;;;;;;10.15;5.32;;;6.40;99.90;;;;;;5033305;28;20480;-72
2021/03/30 00:11:48;;;;;;;9.75;5.88;;;6.40;99.90;;;;;;5034465;28;20033;-73
2021/03/30 00:14:13;;;;;;;10.50;6.60;;;6.40;99.90;;;;;;5032831;28;20029;-73
2021/03/30 00:16:39;;;;;;;7.07;5.32;;;6.40;99.90;;;;;;5033193;28;20030;-74
2021/03/30 00:19:05;;;;;;;8.90;5.53;;;6.40;99.90;;;;;;5033146;28;20032;-73
2021/03/30 00:21:31;;;;;;;8.20;5.10;;;6.30;99.90;;;;;;5032339;28;20025;-72
2021/03/30 00:23:56;;;;;;;9.75;5.45;;;6.20;99.90;;;;;;5031977;28;20096;-73
2021/03/30 00:26:22;;;;;;;11.75;5.97;;;6.20;99.90;;;;;;5033052;28;20053;-72
2021/03/30 00:28:47;;;;;;;10.23;5.45;;;6.10;99.90;;;;;;5032023;28;20061;-73
2021/03/30 00:31:13;;;;;;;15.18;5.68;;;6.10;99.90;;;;;;5032864;28;20033;-73
2021/03/30 00:33:39;;;;;;;10.57;5.22;;;6.00;99.90;;;;;;5032205;28;20033;-73
2021/03/30 00:36:05;;;;;;;8.45;5.32;;;5.90;99.90;;;;;;5031409;28;20033;-72
2021/03/30 00:38:30;;;;;;;7.72;6.13;;;5.90;99.90;;;;;;5032542;28;20021;-73
2021/03/30 00:40:58;;;;;;;12.80;6.40;;;5.90;99.90;;;;;;5032353;28;20021;-71
2021/03/30 00:43:24;;;;;;;11.23;5.88;;;5.90;99.90;;;;;;5031435;28;20018;-72
2021/03/30 00:45:51;;;;;;;13.63;6.28;;;5.80;99.90;;;;;;5032481;28;20399;-73
2021/03/30 00:48:27;;;;;;;12.10;6.20;;;5.80;99.90;;;;;;5030274;28;20029;-73
2021/03/30 00:50:54;;;;;;;9.32;5.85;;;5.80;99.90;;;;;;5031226;28;20064;-72
2021/03/30 00:53:20;;;;;;;10.35;5.95;;;5.80;99.90;;;;;;5097445;23;20036;-70
2021/03/30 00:55:46;;;;;;;10.73;5.70;;;5.80;99.90;;;;;;5043347;28;20077;-69
2021/03/30 00:58:12;;;;;;;14.65;6.13;;;5.80;99.90;;;;;;5051590;28;20053;-70
2021/03/30 01:00:38;;;;;;;9.10;5.60;;;5.70;99.90;;;;;;5054187;28;20048;-71
2021/03/30 01:03:04;;;;;;;8.55;5.30;;;5.70;99.90;;;;;;5053850;28;20021;-69
2021/03/30 01:05:29;;;;;;;14.30;6.05;;;5.70;99.90;;;;;;5051171;28;20383;-70
2021/03/30 01:08:29;;;;;;;9.05;5.55;;;5.70;99.90;;;;;;5052186;28;20029;-70
2021/03/30 01:11:02;;;;;;;8.20;5.72;;;5.60;99.90;;;;;;5052006;28;20024;-71
2021/03/30 01:13:36;;;;;;;9.48;6.13;;;5.60;99.90;;;;;;5050487;28;20025;-73
2021/03/30 01:16:08;;;;;;;10.82;5.75;;;5.50;99.90;;;;;;5051767;28;20029;-72
2021/03/30 01:18:53;;;;;;;;;;;5.50;99.90;;;;;;5050811;28;20028;-72
2021/03/30 01:21:40;;;;;;;12.35;5.75;;;5.40;99.90;;;;;;5050550;28;19992;-68
2021/03/30 01:24:18;;;;;;;14.20;6.25;;;5.40;99.90;;;;;;5049508;28;20059;-71
2021/03/30 01:26:57;;;;;;;7.95;5.65;;;5.40;99.90;;;;;;5051655;28;20032;-73
2021/03/30 01:29:39;;;;;;;8.32;5.13;;;5.30;99.90;;;;;;5051477;28;20031;-73
2021/03/30 01:32:07;;;;;;;;;;;5.30;99.90;;;;;;5032190;28;20110;-71
2021/03/30 01:34:33;;;;;;;11.07;5.75;;;5.30;99.90;;;;;;5030944;28;20437;-71
2021/03/30 01:37:00;;;;;;;10.55;5.85;;;5.30;99.90;;;;;;5051190;28;20082;-69
2021/03/30 01:39:27;;;;;;;8.93;5.68;;;5.20;99.90;;;;;;5051551;28;20551;-71
2021/03/30 01:41:55;;;;;;;9.52;6.13;;;5.10;99.90;;;;;;5051368;28;20029;-69
2021/03/30 01:44:23;;;;;;;8.55;6.22;;;5.10;99.90;;;;;;5050751;28;20509;-69
2021/03/30 01:46:50;;;;;;;13.57;6.50;;;5.00;99.90;;;;;;5051221;28;20029;-70
2021/03/30 01:49:18;;;;;;;10.05;5.93;;;5.00;99.90;;;;;;5051142;28;20029;-69
2021/03/30 01:51:45;;;;;;;10.23;5.63;;;5.00;99.90;;;;;;5050736;28;20025;-71
2021/03/30 01:54:12;;;;;;;10.32;6.03;;;5.00;99.90;;;;;;5049563;28;20143;-69
2021/03/30 01:56:40;;;;;;;10.30;5.75;;;5.00;99.90;;;;;;5051023;28;20474;-70
2021/03/30 01:59:09;;;;;;;10.93;6.00;;;4.90;99.90;;;;;;5051294;28;20033;-69
2021/03/30 02:01:36;;;;;;;15.93;6.97;;;4.80;99.90;;;;;;5050974;28;20025;-69
2021/03/30 02:04:06;;;;;;;10.35;6.10;;;4.70;99.90;;;;;;5050371;28;20036;-69
2021/03/30 02:06:38;;;;;;;10.43;6.45;;;4.90;99.90;;;;;;5050165;28;20563;-69
2021/03/30 02:09:07;;;;;;;13.30;7.65;;;4.60;99.90;;;;;;5050912;28;20150;-69
2021/03/30 02:11:42;;;;;;;7.82;6.22;;;4.70;99.90;;;;;;5051179;28;20491;-69
2021/03/30 02:14:08;;;;;;;10.10;6.20;;;4.70;99.90;;;;;;5050404;28;20471;-70
2021/03/30 02:16:46;;;;;;;11.93;6.38;;;4.70;99.90;;;;;;5049517;28;20033;-69
2021/03/30 02:19:24;;;;;;;7.05;6.05;;;4.70;99.90;;;;;;5051015;28;20025;-69
2021/03/30 02:22:11;;;;;;;11.43;7.20;;;4.70;99.90;;;;;;5050981;28;20052;-70
2021/03/30 02:24:40;;;;;;;10.40;6.80;;;4.70;99.90;;;;;;5049985;28;20108;-69
2021/03/30 02:27:09;;;;;;;10.40;6.68;;;4.70;99.90;;;;;;5050945;28;20071;-71
2021/03/30 02:29:36;;;;;;;13.40;6.10;;;4.60;99.90;;;;;;5050125;28;20040;-70
2021/03/30 02:32:05;;;;;;;8.35;6.00;;;4.60;99.90;;;;;;5050933;28;20021;-71
2021/03/30 02:34:33;;;;;;;12.35;6.88;;;4.60;99.90;;;;;;5048140;28;20162;-69
2021/03/30 02:37:00;;;;;;;11.70;6.82;;;4.60;99.90;;;;;;5050527;28;20032;-69
2021/03/30 02:39:27;;;;;;;16.70;7.50;;;4.60;99.90;;;;;;5050930;28;20102;-70
2021/03/30 02:41:57;;;;;;;11.27;7.13;;;4.50;99.90;;;;;;5050956;28;20052;-68
2021/03/30 02:44:24;;;;;;;11.73;7.25;;;4.50;99.90;;;;;;5050376;28;20051;-69
2021/03/30 02:46:50;;;;;;;11.55;6.32;;;4.40;99.90;;;;;;5050919;28;20429;-71
2021/03/30 02:49:18;;;;;;;16.73;6.45;;;4.40;99.90;;;;;;5050626;28;20033;-70
2021/03/30 02:51:46;;;;;;;11.55;7.00;;;4.40;99.90;;;;;;5049231;28;20029;-69
2021/03/30 02:54:13;;;;;;;14.18;6.93;;;4.40;99.90;;;;;;5050328;28;20032;-70
2021/03/30 02:56:38;;;;;;;9.32;6.32;;;4.30;99.90;;;;;;5051327;28;20021;-70
2021/03/30 02:59:05;;;;;;;11.38;6.45;;;4.30;99.90;;;;;;5072810;28;20036;-69
2021/03/30 03:01:32;;;;;;;12.23;6.65;;;4.40;99.90;;;;;;5074867;28;20021;-72
2021/03/30 03:04:00;;;;;;;10.45;7.05;;;4.30;99.90;;;;;;5054720;28;20027;-72
2021/03/30 03:06:26;;;;;;;9.93;6.35;;;4.30;99.90;;;;;;5055141;28;20036;-71
2021/03/30 03:08:52;;;;;;;9.20;6.68;;;4.30;99.90;;;;;;5056566;28;20423;-72
2021/03/30 03:11:18;;;;;;;16.20;7.25;;;4.30;99.90;;;;;;5056398;28;20023;-72
2021/03/30 03:13:47;;;;;;;10.10;6.80;;;4.30;99.90;;;;;;5054749;28;20390;-70
2021/03/30 03:16:13;;;;;;;11.77;7.15;;;4.20;99.90;;;;;;5053968;28;20483;-71
2021/03/30 03:18:41;;;;;;;8.80;6.40;;;4.20;99.90;;;;;;5054105;28;20107;-71
2021/03/30 03:21:09;;;;;;;11.45;6.95;;;4.10;99.90;;;;;;5053789;28;20028;-71
2021/03/30 03:23:37;;;;;;;11.68;6.88;;;4.20;99.90;;;;;;5053305;28;20305;-71
2021/03/30 03:26:04;;;;;;;10.77;7.18;;;4.10;99.90;;;;;;5055231;28;20021;-71
2021/03/30 03:28:29;;;;;;;9.10;6.88;;;4.10;99.90;;;;;;5056725;28;20028;-71
2021/03/30 03:30:55;;;;;;;10.82;6.95;;;4.10;99.90;;;;;;5054093;28;20029;-72
2021/03/30 03:33:21;;;;;;;11.90;7.03;;;4.10;99.90;;;;;;5052864;28;20108;-71
2021/03/30 03:36:01;;;;;;;10.93;6.85;;;4.10;99.90;;;;;;5053250;28;20502;-70
2021/03/30 03:38:27;;;;;;;12.13;7.38;;;4.10;99.90;;;;;;5053546;28;20021;-71
2021/03/30 03:40:52;;;;;;;14.75;7.50;;;4.00;99.90;;;;;;5053608;28;20047;-70
2021/03/30 03:43:18;;;;;;;13.18;7.43;;;4.00;99.90;;;;;;5052694;28;20029;-71
2021/03/30 03:45:44;;;;;;;10.98;7.65;;;3.90;99.90;;;;;;5053205;28;20503;-71
2021/03/30 03:48:09;;;;;;;15.73;7.97;;;3.80;99.90;;;;;;5053415;28;20029;-70
2021/03/30 03:50:35;;;;;;;11.68;6.95;;;3.80;99.90;;;;;;5053179;28;20025;-70
2021/03/30 03:53:01;;;;;;;13.38;6.35;;;3.80;99.90;;;;;;5052460;28;20036;-70
2021/03/30 03:55:29;;;;;;;15.35;7.90;;;3.80;99.90;;;;;;5052943;28;20056;-71
2021/03/30 03:58:04;;;;;;;10.13;6.75;;;3.90;99.90;;;;;;5053320;28;20029;-71
2021/03/30 04:00:30;;;;;;;9.25;6.32;;;3.80;99.90;;;;;;5053000;28;20533;-71
2021/03/30 04:03:12;;;;;;;10.27;6.90;;;3.70;99.90;;;;;;5052391;28;20033;-71
2021/03/30 04:05:51;;;;;;;12.25;7.32;;;3.70;99.90;;;;;;5052719;28;20032;-70
2021/03/30 04:08:17;;;;;;;11.63;7.10;;;3.70;99.90;;;;;;5053022;28;20033;-71
2021/03/30 04:10:47;;;;;;;11.70;7.85;;;3.70;99.90;;;;;;5052950;28;20032;-71
2021/03/30 04:13:16;;;;;;;10.13;6.90;;;3.70;99.90;;;;;;5052202;28;20131;-70
2021/03/30 04:15:42;;;;;;;9.93;6.00;;;3.60;99.90;;;;;;5051758;28;20498;-71
2021/03/30 04:18:08;;;;;;;9.25;6.43;;;3.50;99.90;;;;;;5051245;28;20032;-70
2021/03/30 04:20:34;;;;;;;11.43;6.60;;;3.50;99.90;;;;;;5052545;28;20017;-70
2021/03/30 04:23:00;;;;;;;10.77;6.97;;;3.50;99.90;;;;;;5051801;28;20107;-70
2021/03/30 04:25:27;;;;;;;10.30;6.40;;;3.50;99.90;;;;;;5052126;28;20121;-71
2021/03/30 04:27:54;;;;;;;12.35;6.22;;;3.50;99.90;;;;;;5051085;28;20025;-72
2021/03/30 04:30:21;;;;;;;8.45;6.40;;;3.50;99.90;;;;;;5052502;28;20021;-70
2021/03/30 04:32:47;;;;;;;15.32;6.55;;;3.50;99.90;;;;;;5050457;28;20029;-71
2021/03/30 04:35:13;;;;;;;11.98;6.72;;;3.50;99.90;;;;;;5051681;28;20337;-70
2021/03/30 04:37:39;;;;;;;12.88;6.63;;;3.50;99.90;;;;;;5052389;28;20098;-74
2021/03/30 04:40:08;;;;;;;11.35;7.07;;;3.50;99.90;;;;;;5042589;28;20057;-73
2021/03/30 04:42:34;;;;;;;11.95;7.45;;;3.60;99.90;;;;;;5051270;28;20021;-73
2021/03/30 04:44:59;;;;;;;13.18;6.88;;;3.50;99.90;;;;;;5054061;28;20170;-72
2021/03/30 04:47:25;;;;;;;8.30;6.32;;;3.40;99.90;;;;;;5070506;28;20021;-72
2021/03/30 04:49:52;;;;;;;14.10;7.05;;;3.40;99.90;;;;;;5069975;28;20051;-72
2021/03/30 04:52:17;;;;;;;13.40;8.00;;;3.40;99.90;;;;;;5068515;28;20036;-72
2021/03/30 04:54:43;;;;;;;10.75;6.65;;;3.40;99.90;;;;;;5060116;28;20322;-72
2021/03/30 04:57:09;;;;;;;11.32;7.35;;;3.40;99.90;;;;;;5055499;28;20024;-73
2021/03/30 04:59:34;;;;;;;14.73;7.20;;;3.40;99.90;;;;;;5069701;28;20024;-73
2021/03/30 05:02:00;;;;;;;13.55;7.60;;;3.40;99.90;;;;;;5070493;28;20052;-73
2021/03/30 05:04:26;;;;;;;10.55;6.97;;;3.30;99.90;;;;;;5061913;28;20108;-73
2021/03/30 05:06:51;;;;;;;16.30;7.60;;;3.30;99.90;;;;;;5050457;28;20052;-73
2021/03/30 05:09:17;;;;;;;13.10;7.22;;;3.30;99.90;;;;;;5048301;28;20028;-72
2021/03/30 05:11:43;;;;;;;9.57;6.47;;;3.30;99.90;;;;;;5048217;28;20033;-73
2021/03/30 05:14:08;;;;;;;16.17;7.72;;;3.30;99.90;;;;;;5031069;28;20461;-73
2021/03/30 05:16:34;;;;;;;12.48;7.57;;;3.20;99.90;;;;;;5029647;28;20159;-73
2021/03/30 05:19:00;;;;;;;14.27;7.32;;;3.20;99.90;;;;;;5030860;28;20029;-73
2021/03/30 05:21:26;;;;;;;14.98;7.28;;;3.20;99.90;;;;;;5031145;28;20101;-72
2021/03/30 05:23:51;;;;;;;11.43;7.43;;;3.30;99.90;;;;;;5030526;28;20484;-72
2021/03/30 05:26:17;;;;;;;16.88;7.47;;;3.20;99.90;;;;;;5030666;28;20036;-71
2021/03/30 05:28:42;;;;;;;9.43;6.60;;;3.20;99.90;;;;;;5031070;28;20679;-72
2021/03/30 05:31:09;;;;;;;9.65;7.00;;;3.10;99.90;;;;;;5031253;28;20025;-72
2021/03/30 05:33:35;;;;;;;14.38;7.55;;;3.20;99.90;;;;;;5039445;28;20028;-71
2021/03/30 05:36:01;;;;;;;18.48;7.10;;;3.10;99.90;;;;;;5050844;28;20398;-71
2021/03/30 05:38:27;;;;;;;10.55;7.10;;;3.20;99.90;;;;;;5036685;28;20034;-72
2021/03/30 05:40:55;;;;;;;12.25;7.75;;;3.20;99.90;;;;;;5035406;28;20090;-73
2021/03/30 05:43:22;;;;;;;17.55;7.90;;;3.30;99.90;;;;;;5038612;28;20090;-73
2021/03/30 05:45:48;;;;;;;10.55;7.05;;;3.30;99.90;;;;;;5030527;28;20527;-73
2021/03/30 05:48:14;;;;;;;13.95;6.63;;;3.40;99.90;;;;;;5033004;28;20033;-73
2021/03/30 05:50:40;;;;;;;12.20;7.30;;;3.40;99.90;;;;;;5048213;28;20107;-73
2021/03/30 05:53:08;;;;;;;12.98;6.88;;;3.40;99.90;;;;;;5050246;28;20033;-72
2021/03/30 05:55:39;;;;;;;15.38;6.72;;;3.40;99.90;;;;;;5051808;28;20025;-73
2021/03/30 05:58:07;;;;;;;10.68;7.53;;;3.30;99.90;;;;;;5057938;28;20017;-73
2021/03/30 06:00:45;;;;;;;12.63;7.32;;;3.40;99.90;;;;;;5053831;28;20025;-73
2021/03/30 06:03:14;;;;;;;12.57;7.10;;;3.40;99.90;;;;;;5050669;28;20723;-73
2021/03/30 06:05:41;;;;;;;10.75;7.10;;;3.50;99.90;;;;;;5050649;28;20025;-71
2021/03/30 06:08:07;;;;;;;9.00;6.43;;;3.50;99.90;;;;;;5051833;28;20029;-72
2021/03/30 06:10:35;;;;;;;10.88;6.43;;;3.50;99.90;;;;;;5052327;28;20036;-70
2021/03/30 06:13:03;;;;;;;10.80;6.47;;;3.60;99.90;;;;;;5049217;28;20017;-71
2021/03/30 06:15:34;;;;;;;13.07;6.30;;;3.70;99.90;;;;;;5050820;28;20470;-72
2021/03/30 06:18:02;;;;;;;10.07;6.17;;;3.70;99.90;;;;;;5051206;28;20025;-71
2021/03/30 06:20:36;;;;;;;12.77;5.80;;;3.70;99.90;;;;;;5048511;28;20075;-70
2021/03/30 06:23:04;;;;;;;11.68;5.88;;;3.70;99.90;;;;;;5049819;28;20025;-71
2021/03/30 06:25:43;;;;;;;11.77;6.18;;;3.90;99.90;;;;;;5050784;28;20383;-72
2021/03/30 06:28:32;;;;;;;11.55;6.57;;;4.10;99.90;;;;;;5051683;28;20025;-72
2021/03/30 06:31:04;;;;;;;15.65;6.30;;;4.20;99.90;;;;;;5030801;28;20029;-71
2021/03/30 06:33:33;;;;;;;10.50;6.30;;;4.30;99.90;;;;;;5036560;28;20036;-71
2021/03/30 06:36:14;;;;;;;12.05;5.95;;;4.40;99.90;;;;;;5071567;28;20108;-71
2021/03/30 06:38:47;;;;;;;9.45;5.82;;;4.40;99.90;;;;;;5066024;28;20047;-70
2021/03/30 06:41:30;;;;;;;;;;;4.50;99.90;;;;;;5048640;28;20363;-72
2021/03/30 06:46:55;;;;;;;11.63;6.90;;;4.70;99.90;;;;;;5059442;28;20381;-72
2021/03/30 06:49:22;;;;;;;12.82;7.43;;;4.60;99.90;;;;;;5075777;28;20141;-72
2021/03/30 06:51:48;;;;;;;13.60;6.93;;;4.70;99.90;;;;;;5087256;28;20534;-71
2021/03/30 06:54:14;;;;;;;12.18;6.45;;;4.70;99.90;;;;;;5088729;28;20123;-71
2021/03/30 06:56:57;;;;;;;18.30;7.63;;;4.90;99.90;;;;;;5089481;28;20033;-71
2021/03/30 06:59:24;;;;;;;11.38;6.22;;;5.00;99.90;;;;;;5088318;28;20035;-72
2021/03/30 07:01:55;;;;;;;10.55;6.05;;;5.00;99.90;;;;;;5065280;28;20086;-72
2021/03/30 07:04:22;;;;;;;16.48;6.65;;;5.20;99.90;;;;;;5059471;28;20025;-72
2021/03/30 07:06:52;;;;;;;17.70;6.60;;;5.20;99.90;;;;;;5057479;28;20528;-73
2021/03/30 07:09:19;;;;;;;12.25;5.97;;;5.40;99.90;;;;;;5071020;28;20053;-73
2021/03/30 07:11:45;;;;;;;12.00;5.70;;;5.50;99.90;;;;;;5054934;28;20033;-73
2021/03/30 07:14:11;;;;;;;9.18;5.75;;;5.70;99.90;;;;;;5052064;28;20025;-73
2021/03/30 07:16:53;;;;;;;12.02;5.88;;;5.70;99.90;;;;;;5056441;28;20029;-73
2021/03/30 07:19:24;;;;;;;10.00;6.18;;;5.90;99.90;;;;;;5058720;28;20017;-73
2021/03/30 07:22:01;;;;;;;11.68;6.57;;;6.10;99.90;;;;;;5058335;28;20535;-73
2021/03/30 07:24:39;;;;;;;9.80;5.85;;;6.20;99.90;;;;;;5054145;28;20481;-73
2021/03/30 07:27:07;;;;;;;11.88;6.30;;;6.40;99.90;;;;;;5053941;28;20025;-73
2021/03/30 07:29:40;;;;;;;11.45;6.30;;;6.60;99.90;;;;;;5057564;28;20036;-74
2021/03/30 07:32:05;;;;;;;13.73;5.68;;;6.70;99.90;;;;;;5056842;28;20036;-74
2021/03/30 07:34:58;;;;;;;9.70;6.25;;;6.80;99.90;;;;;;5052098;28;20029;-73
2021/03/30 07:37:34;;;;;;;11.60;6.00;;;7.10;99.90;;;;;;5072281;28;20561;-74
2021/03/30 07:40:01;;;;;;;10.82;6.00;;;7.30;99.90;;;;;;5072600;28;20023;-73
2021/03/30 07:42:28;;;;;;;12.35;5.93;;;7.40;99.90;;;;;;5073488;28;20021;-73
2021/03/30 07:44:55;;;;;;;12.23;6.18;;;7.40;99.90;;;;;;5072739;28;20023;-73
2021/03/30 07:47:21;;;;;;;9.60;6.07;;;7.60;99.90;;;;;;5073431;28;20028;-74
2021/03/30 07:49:50;;;;;;;9.30;5.88;;;7.80;99.90;;;;;;5072397;28;20032;-73
2021/03/30 07:52:21;;;;;;;11.57;6.05;;;8.00;99.90;;;;;;5073134;28;20116;-73
2021/03/30 07:55:16;;;;;;;9.57;6.07;;;8.20;99.90;;;;;;5072553;28;20020;-73
2021/03/30 07:57:55;;;;;;;12.68;6.25;;;8.40;99.90;;;;;;5073767;28;20032;-72
2021/03/30 08:00:33;;;;;;;9.60;5.63;;;8.60;99.90;;;;;;5073571;28;20212;-72
2021/03/30 08:03:26;;;;;;;11.95;6.13;;;8.90;99.90;;;;;;5071392;28;20103;-74
2021/03/30 08:06:10;;;;;;;10.05;5.30;;;9.30;99.90;;;;;;5030339;28;20030;-73
2021/03/30 08:08:51;;;;;;;10.52;4.90;;;9.80;99.90;;;;;;5033021;28;20028;-72
2021/03/30 08:11:43;;;;;;;10.68;5.47;;;10.40;99.90;;;;;;5051569;28;20464;-73
2021/03/30 08:14:18;;;;;;;;;;;10.80;99.90;;;;;;5051498;28;20032;-73
2021/03/30 08:16:50;;;;;;;12.80;5.50;;;11.20;99.90;;;;;;5052832;28;19920;-71
2021/03/30 08:19:16;;;;;;;10.65;5.63;;;12.10;99.90;;;;;;5051219;28;20458;-73
2021/03/30 08:21:52;;;;;;;8.68;5.30;;;12.70;99.90;;;;;;5052984;28;20029;-73
2021/03/30 08:24:19;;;;;;;14.23;5.38;;;13.40;99.90;;;;;;5052384;28;20384;-73
2021/03/30 08:26:46;;;;;;;9.65;5.20;;;14.20;99.90;;;;;;5053147;28;20027;-72
2021/03/30 08:29:18;;;;;;;10.85;4.90;;;15.10;99.90;;;;;;5051694;28;20027;-73
2021/03/30 08:31:47;;;;;;;8.90;5.05;;;13.90;98.50;;;;;;5051381;28;20490;-73
2021/03/30 08:34:21;;;;;;;10.00;5.40;;;14.20;99.90;;;;;;5051120;28;20064;-71
2021/03/30 08:36:49;;;;;;;12.13;4.90;;;15.20;98.40;;;;;;5063973;28;20486;-73
2021/03/30 08:39:18;;;;;;;7.78;4.47;;;15.60;96.80;;;;;;5072217;28;20027;-73
2021/03/30 08:41:45;;;;;;;6.25;4.63;;;15.70;94.90;;;;;;5071473;28;20475;-73
2021/03/30 08:44:11;;;;;;;8.52;4.25;;;16.00;92.50;;;;;;5071449;28;20021;-73
2021/03/30 08:46:39;;;;;;;8.52;4.15;;;15.80;92.40;;;;;;5072081;28;20025;-72
2021/03/30 08:49:26;;;;;;;8.98;4.30;;;16.40;92.20;;;;;;5071824;28;20025;-73
2021/03/30 08:52:03;;;;;;;7.03;4.30;;;16.70;90.70;;;;;;5071609;28;20036;-73
2021/03/30 08:54:58;;;;;;;12.88;4.20;;;17.80;87.70;;;;;;5071012;28;20483;-73
2021/03/30 08:57:32;;;;;;;9.52;3.95;;;18.70;83.00;;;;;;5070611;28;20083;-71
2021/03/30 09:00:11;;;;;;;4.55;3.88;;;18.60;79.80;;;;;;5071919;28;20027;-72
2021/03/30 09:02:37;;;;;;;10.55;4.55;;;17.90;78.00;;;;;;5071067;28;20024;-69
2021/03/30 09:05:16;;;;;;;7.00;4.00;;;17.90;82.90;;;;;;5057819;28;20086;-72
2021/03/30 09:07:43;;;;;;;12.60;5.00;;;19.50;77.20;;;;;;5050666;28;20473;-71
2021/03/30 09:10:10;;;;;;;13.05;4.82;;;18.90;73.40;;;;;;5051882;28;20025;-71
2021/03/30 09:12:36;;;;;;;7.05;3.83;;;18.40;73.90;;;;;;5051521;28;20029;-70
2021/03/30 09:15:04;;;;;;;5.85;4.05;;;18.90;75.40;;;;;;5050961;28;20033;-71
2021/03/30 09:17:30;;;;;;;5.60;4.35;;;19.50;71.00;;;;;;5051007;28;20033;-72
2021/03/30 09:19:56;;;;;;;5.03;3.63;;;18.40;72.30;;;;;;5051093;28;20028;-72
2021/03/30 09:22:30;;;;;;;6.18;3.80;;;19.90;72.30;;;;;;5051446;28;20039;-71
2021/03/30 09:27:51;;;;;;;14.05;4.20;;;21.00;69.10;;;;;;5050894;28;20399;-71
2021/03/30 09:30:20;;;;;;;8.00;4.68;;;21.60;65.40;;;;;;5050595;28;20021;-70
2021/03/30 09:32:48;;;;;;;7.20;3.85;;;22.90;64.40;;;;;;5049631;28;20029;-72
2021/03/30 09:35:21;;;;;;;8.55;5.00;;;23.00;59.20;;;;;;5051121;28;20022;-70
2021/03/30 09:37:48;;;;;;;12.07;4.40;;;22.90;58.90;;;;;;5071428;28;20107;-70
2021/03/30 09:40:25;;;;;;;5.57;4.00;;;24.10;59.40;;;;;;5071468;28;20025;-71
2021/03/30 09:42:51;;;;;;;4.95;3.70;;;25.30;55.20;;;;;;5071021;28;20521;-71
2021/03/30 09:45:37;;;;;;;6.53;4.57;;;24.00;54.70;;;;;;5062988;28;20431;-69
2021/03/30 09:48:06;;;;;;;14.45;4.25;;;23.60;57.90;;;;;;5051629;28;20471;-69
2021/03/30 09:50:33;;;;;;;7.00;4.50;;;24.50;54.50;;;;;;5048694;28;20025;-70
2021/03/30 09:53:07;;;;;;;9.40;5.18;;;25.70;53.60;;;;;;5048196;28;20033;-70
2021/03/30 09:55:35;;;;;;;9.15;3.80;;;26.80;50.70;;;;;;5045950;28;20103;-71
2021/03/30 09:58:03;;;;;;;16.35;4.55;;;27.90;48.20;;;;;;5048017;28;20044;-71
2021/03/30 10:00:30;;;;;;;10.63;4.00;;;27.10;50.60;;;;;;5049934;28;20100;-69
2021/03/30 10:02:56;;;;;;;7.72;3.78;;;28.20;47.10;;;;;;5050360;28;20029;-69
2021/03/30 10:05:22;;;;;;;6.18;4.30;;;28.50;46.00;;;;;;5050934;28;20021;-70
2021/03/30 10:07:48;;;;;;;7.00;4.10;;;28.00;44.60;;;;;;5051021;28;20049;-69
2021/03/30 10:10:15;;;;;;;7.00;3.95;;;28.80;44.00;;;;;;5049794;28;20044;-71
2021/03/30 10:12:56;;;;;;;8.32;3.95;;;28.90;44.00;;;;;;5051043;28;20064;-70
2021/03/30 10:15:40;;;;;;;5.25;4.00;;;29.00;42.70;;;;;;5054808;28;20037;-70
2021/03/30 10:18:08;;;;;;;5.72;3.80;;;28.70;42.40;;;;;;5054623;28;20021;-70
2021/03/30 10:20:45;;;;;;;8.50;4.15;;;28.40;44.50;;;;;;5054567;28;20025;-71
2021/03/30 10:23:23;;;;;;;8.50;4.20;;;28.50;43.60;;;;;;5053735;28;20017;-70
2021/03/30 10:25:49;;;;;;;7.18;4.30;;;28.90;43.20;;;;;;5054575;28;20103;-70
2021/03/30 10:28:32;;;;;;;6.32;4.03;;;29.40;41.00;;;;;;5054413;28;20029;-69
2021/03/30 10:31:21;;;;;;;5.90;3.85;;;29.30;40.70;;;;;;5054675;28;20033;-70
2021/03/30 10:33:50;;;;;;;8.80;3.83;;;30.00;41.50;;;;;;5053694;28;20503;-69
2021/03/30 10:36:16;;;;;;;4.68;3.63;;;28.00;40.60;;;;;;5064482;28;20028;-72
2021/03/30 10:39:10;;;;;;;4.38;3.35;;;27.90;42.40;;;;;;5074540;28;20028;-72
2021/03/30 10:41:42;;;;;;;5.22;4.10;;;28.70;41.20;;;;;;5074504;28;20016;-71
2021/03/30 10:44:09;;;;;;;6.22;3.85;;;29.00;40.60;;;;;;5072225;28;20555;-70
2021/03/30 10:46:43;;;;;;;4.40;3.40;;;28.60;41.40;;;;;;5074168;28;20024;-71
2021/03/30 10:49:09;;;;;;;6.53;3.78;;;29.40;39.60;;;;;;5055039;28;20035;-72
2021/03/30 10:51:39;;;;;;;6.63;3.20;;;30.40;39.70;;;;;;5054120;28;20024;-71
2021/03/30 10:54:06;;;;;;;6.43;3.15;;;30.70;38.00;;;;;;5053487;28;20417;-70
2021/03/30 10:56:32;;;;;;;6.05;2.63;;;29.20;39.40;;;;;;5054257;28;20021;-70
2021/03/30 10:58:58;;;;;;;4.35;2.92;;;29.80;38.70;;;;;;5054420;28;20072;-69
2021/03/30 11:01:24;;;;;;;4.47;3.35;;;30.00;37.70;;;;;;5054130;28;20049;-68
2021/03/30 11:03:50;;;;;;;4.95;3.03;;;30.40;36.50;;;;;;5053708;28;20068;-70
2021/03/30 11:06:16;;;;;;;5.15;2.47;;;26.50;41.00;;;;;;5054151;28;20392;-69
2021/03/30 11:08:42;;;;;;;8.07;2.83;;;27.30;42.10;;;;;;5054371;28;20104;-70
2021/03/30 11:11:08;;;;;;;9.73;2.70;;;29.00;39.70;;;;;;5054329;28;20025;-70
2021/03/30 11:13:34;;;;;;;7.95;2.70;;;29.50;37.30;;;;;;5053668;28;20113;-71
2021/03/30 11:15:59;;;;;;;2.75;2.20;;;29.80;36.50;;;;;;5053836;28;20029;-70
2021/03/30 11:18:25;;;;;;;3.63;2.17;;;29.80;36.70;;;;;;5054204;28;20017;-69
2021/03/30 11:20:51;;;;;;;2.65;2.45;;;29.50;36.80;;;;;;5054062;28;20104;-70
2021/03/30 11:23:17;;;;;;;10.25;2.65;;;30.70;36.70;;;;;;5054581;28;20120;-73
2021/03/30 11:25:43;;;;;;;2.85;2.33;;;29.70;39.00;;;;;;5054627;28;20032;-73
2021/03/30 11:28:11;;;;;;;7.57;2.38;;;30.40;36.80;;;;;;5053949;28;20025;-71
2021/03/30 11:33:36;;;;;;;4.35;2.60;;;31.70;35.20;;;;;;5040300;28;20044;-70
2021/03/30 11:36:06;;;;;;;6.90;2.15;;;31.20;31.90;;;;;;5060761;28;20416;-68
2021/03/30 11:38:31;;;;;;;6.20;2.35;;;29.70;34.30;;;;;;5073859;28;20035;-68
2021/03/30 11:40:57;;;;;;;3.88;2.20;;;30.40;36.40;;;;;;5072753;28;20394;-69
2021/03/30 11:43:23;;;;;;;3.05;1.92;;;30.50;32.50;;;;;;5054415;28;20025;-69
2021/03/30 11:45:48;;;;;;;3.58;1.88;;;30.50;35.10;;;;;;5054205;28;20040;-68
2021/03/30 11:48:14;;;;;;;3.83;1.63;;;31.00;31.30;;;;;;5059613;28;20099;-69
2021/03/30 11:50:40;;;;;;;3.75;1.92;;;31.20;31.50;;;;;;5074452;28;20063;-68
2021/03/30 11:53:06;;;;;;;26.83;2.80;;;31.90;31.50;;;;;;5067708;28;20041;-69
2021/03/30 11:55:31;;;;;;;8.75;2.35;;;31.50;31.40;;;;;;5052794;28;20029;-68
2021/03/30 11:57:57;;;;;;;7.18;2.47;;;32.90;33.40;;;;;;5054067;28;20120;-68
2021/03/30 12:00:23;;;;;;;2.30;2.10;;;31.50;31.60;;;;;;5059228;28;20021;-68
2021/03/30 12:02:49;;;;;;;3.45;2.55;;;30.60;31.90;;;;;;5072690;28;20683;-67
2021/03/30 12:05:16;;;;;;;4.32;2.25;;;30.30;31.80;;;;;;5075172;28;20020;-68
2021/03/30 12:07:41;;;;;;;2.63;2.40;;;30.10;32.40;;;;;;5073928;28;20023;-68
2021/03/30 12:10:07;;;;;;;4.43;2.17;;;30.30;32.60;;;;;;5073834;28;20016;-68
2021/03/30 12:12:34;;;;;;;3.65;2.58;;;30.40;33.50;;;;;;5074857;28;20501;-68
2021/03/30 12:15:00;;;;;;;7.93;3.20;;;30.40;31.90;;;;;;5073697;28;20578;-68
2021/03/30 12:17:26;;;;;;;3.15;2.88;;;30.90;33.30;;;;;;5074240;28;20105;-69
2021/03/30 12:19:52;;;;;;;4.45;2.42;;;30.50;30.00;;;;;;5073582;28;20051;-66
2021/03/30 12:22:18;;;;;;;2.88;2.22;;;30.10;32.50;;;;;;5072456;28;20347;-68
2021/03/30 12:24:44;;;;;;;3.00;2.25;;;29.70;32.30;;;;;;5053307;28;20049;-68
2021/03/30 12:27:10;;;;;;;2.72;2.08;;;30.40;33.50;;;;;;5052660;28;20624;-69
2021/03/30 12:29:40;;;;;;;5.90;2.72;;;30.70;31.80;;;;;;5051131;28;20036;-70
2021/03/30 12:32:07;;;;;;;4.57;2.83;;;29.70;29.90;;;;;;5051556;28;20033;-68
2021/03/30 12:34:36;;;;;;;4.20;2.95;;;29.40;31.60;;;;;;5039571;28;20476;-68
2021/03/30 12:37:03;;;;;;;3.63;2.33;;;29.30;32.60;;;;;;5050804;28;20546;-68
2021/03/30 12:39:29;;;;;;;3.72;2.75;;;29.30;32.80;;;;;;5056653;28;20024;-68
2021/03/30 12:41:54;;;;;;;3.67;2.30;;;28.90;31.90;;;;;;5065874;28;20139;-74
2021/03/30 12:44:20;;;;;;;5.07;2.50;;;29.50;33.30;;;;;;5040720;28;20022;-76
2021/03/30 12:46:46;;;;;;;3.75;2.63;;;28.50;33.20;;;;;;5052480;28;20529;-73
2021/03/30 12:49:12;;;;;;;7.97;2.80;;;29.40;34.00;;;;;;5052271;28;20036;-73
2021/03/30 12:51:39;;;;;;;5.22;2.65;;;29.20;32.70;;;;;;5056319;28;20027;-73
2021/03/30 12:54:04;;;;;;;4.65;2.83;;;29.90;34.60;;;;;;5071128;28;20119;-73
2021/03/30 12:56:30;;;;;;;2.72;2.20;;;30.60;34.00;;;;;;5072371;28;20111;-73
2021/03/30 12:58:56;;;;;;;3.22;2.35;;;30.60;30.90;;;;;;5071665;28;20094;-73
2021/03/30 13:01:21;;;;;;;8.20;2.72;;;30.80;31.00;;;;;;5071835;28;20478;-69
2021/03/30 13:03:47;;;;;;;3.88;2.28;;;30.60;30.60;;;;;;5071091;28;20454;-69
2021/03/30 13:06:13;;;;;;;5.50;2.72;;;30.20;30.30;;;;;;5071218;28;20081;-69
2021/03/30 13:08:39;;;;;;;3.40;2.30;;;29.80;30.40;;;;;;5061840;28;20059;-70